createdAt,value
2017-08-13T00:01:46.520Z,6.70
2017-08-13T00:04:14.388Z,5.60
2017-08-13T00:06:42.382Z,6.30
2017-08-13T00:09:10.245Z,5.90
2017-08-13T00:11:38.145Z,6.13
2017-08-13T00:14:05.858Z,6.33
2017-08-13T00:16:33.667Z,5.00
2017-08-13T00:19:01.545Z,6.10
2017-08-13T00:21:29.381Z,5.30
2017-08-13T00:23:57.126Z,5.80
2017-08-13T00:26:24.998Z,5.63
2017-08-13T00:28:52.861Z,6.63
2017-08-13T00:31:20.826Z,5.80
2017-08-13T00:33:48.536Z,6.27
2017-08-13T00:36:16.260Z,5.90
2017-08-13T00:38:43.873Z,7.50
2017-08-13T00:41:11.523Z,6.30
2017-08-13T00:43:39.361Z,6.77
2017-08-13T00:46:07.055Z,6.70
2017-08-13T00:48:34.706Z,7.47
2017-08-13T00:51:02.380Z,6.80
2017-08-13T00:53:30.125Z,7.10
2017-08-13T00:55:58.123Z,6.40
2017-08-13T00:58:25.961Z,7.43
2017-08-13T01:00:53.905Z,6.63
2017-08-13T01:03:21.919Z,7.83
2017-08-13T01:05:49.584Z,7.67
2017-08-13T01:08:17.241Z,7.50
2017-08-13T01:10:45.095Z,7.00
2017-08-13T01:13:12.841Z,7.43
2017-08-13T01:15:40.807Z,7.50
2017-08-13T01:18:08.494Z,6.67
2017-08-13T01:20:36.487Z,7.40
2017-08-13T01:23:04.444Z,7.80
2017-08-13T01:25:32.474Z,8.50
2017-08-13T01:28:00.385Z,8.53
2017-08-13T01:30:28.235Z,10.77
2017-08-13T01:32:56.177Z,10.50
2017-08-13T01:35:23.982Z,10.23
2017-08-13T01:37:51.850Z,12.13
2017-08-13T01:40:19.923Z,10.47
2017-08-13T01:42:47.646Z,10.13
2017-08-13T01:45:15.636Z,11.50
2017-08-13T01:47:43.379Z,10.73
2017-08-13T01:50:11.368Z,10.73
2017-08-13T01:52:39.257Z,11.50
2017-08-13T01:55:07.156Z,11.67
2017-08-13T01:57:34.781Z,12.37
2017-08-13T02:00:02.589Z,13.10
2017-08-13T02:02:30.622Z,12.90
2017-08-13T02:04:58.352Z,14.07
2017-08-13T02:07:26.671Z,14.33
2017-08-13T02:09:54.625Z,14.10
2017-08-13T02:12:24.339Z,13.33
2017-08-13T02:14:52.241Z,12.57
2017-08-13T02:17:20.231Z,11.00
2017-08-13T02:19:47.941Z,10.10
2017-08-13T02:22:15.808Z,11.63
2017-08-13T02:24:43.445Z,10.63
2017-08-13T02:27:11.202Z,10.80
2017-08-13T02:29:39.166Z,12.33
2017-08-13T02:32:06.912Z,11.30
2017-08-13T02:34:34.895Z,9.67
2017-08-13T02:37:02.720Z,10.07
2017-08-13T02:39:30.671Z,10.60
2017-08-13T02:41:58.334Z,10.90
2017-08-13T02:44:26.403Z,10.93
2017-08-13T02:46:54.237Z,10.03
2017-08-13T02:49:21.934Z,10.57
2017-08-13T02:51:49.788Z,10.03
2017-08-13T02:54:17.637Z,10.53
2017-08-13T02:56:45.297Z,9.53
2017-08-13T02:59:13.021Z,10.17
2017-08-13T03:01:41.064Z,10.10
2017-08-13T03:04:08.723Z,11.43
2017-08-13T03:06:36.791Z,10.27
2017-08-13T03:09:04.718Z,9.47
2017-08-13T03:11:32.678Z,9.90
2017-08-13T03:14:00.501Z,10.23
2017-08-13T03:16:28.440Z,11.63
2017-08-13T03:18:56.121Z,8.67
2017-08-13T03:21:23.993Z,9.20
2017-08-13T03:23:52.065Z,11.27
2017-08-13T03:26:19.730Z,15.60
2017-08-13T03:28:47.455Z,17.03
2017-08-13T03:31:15.420Z,11.10
2017-08-13T03:33:43.326Z,10.43
2017-08-13T03:36:10.988Z,8.30
2017-08-13T03:38:38.854Z,9.23
2017-08-13T03:41:06.588Z,11.00
2017-08-13T03:43:34.504Z,7.20
2017-08-13T03:46:02.460Z,8.40
2017-08-13T03:48:30.328Z,8.63
2017-08-13T03:50:57.922Z,9.13
2017-08-13T03:53:25.898Z,8.67
2017-08-13T03:55:53.887Z,9.13
2017-08-13T03:58:21.459Z,8.43
2017-08-13T04:00:49.147Z,9.77
2017-08-13T04:03:17.119Z,11.23
2017-08-13T04:05:44.988Z,7.50
2017-08-13T04:08:13.043Z,12.50
2017-08-13T04:10:40.743Z,8.73
2017-08-13T04:13:08.378Z,7.80
2017-08-13T04:15:36.303Z,8.20
2017-08-13T04:18:04.318Z,7.40
2017-08-13T04:20:32.158Z,8.70
2017-08-13T04:23:00.053Z,7.57
2017-08-13T04:25:27.920Z,9.97
2017-08-13T04:27:55.638Z,8.30
2017-08-13T04:30:23.597Z,7.20
2017-08-13T04:32:51.367Z,7.07
2017-08-13T04:35:19.389Z,7.93
2017-08-13T04:37:47.404Z,8.30
2017-08-13T04:40:15.221Z,6.80
2017-08-13T04:42:42.987Z,8.00
2017-08-13T04:45:10.850Z,13.93
2017-08-13T04:47:38.506Z,7.60
2017-08-13T04:50:06.176Z,7.57
2017-08-13T04:52:33.935Z,7.40
2017-08-13T04:55:01.913Z,9.40
2017-08-13T04:57:29.763Z,8.80
2017-08-13T04:59:57.439Z,7.47
2017-08-13T05:02:25.099Z,8.30
2017-08-13T05:04:52.846Z,8.00
2017-08-13T05:07:20.631Z,7.60
2017-08-13T05:09:48.451Z,9.43
2017-08-13T05:12:16.338Z,10.10
2017-08-13T05:14:44.086Z,9.03
2017-08-13T05:17:11.894Z,10.10
2017-08-13T05:19:39.478Z,8.73
2017-08-13T05:22:07.159Z,9.80
2017-08-13T05:24:34.872Z,8.10
2017-08-13T05:27:02.847Z,7.47
2017-08-13T05:29:30.821Z,7.77
2017-08-13T05:31:58.781Z,8.60
2017-08-13T05:34:26.552Z,7.77
2017-08-13T05:36:54.260Z,8.33
2017-08-13T05:39:22.285Z,7.20
2017-08-13T05:41:49.999Z,8.53
2017-08-13T05:44:17.866Z,7.60
2017-08-13T05:46:45.733Z,6.90
2017-08-13T05:49:13.754Z,7.10
2017-08-13T05:51:41.415Z,8.17
2017-08-13T05:54:09.258Z,8.10
2017-08-13T05:56:36.934Z,6.97
2017-08-13T05:59:04.794Z,7.10
2017-08-13T06:01:32.512Z,6.23
2017-08-13T06:04:00.548Z,6.60
2017-08-13T06:06:28.610Z,7.07
2017-08-13T06:08:56.220Z,7.30
2017-08-13T06:11:23.936Z,9.10
2017-08-13T06:13:51.668Z,9.10
2017-08-13T06:16:19.339Z,6.57
2017-08-13T06:18:47.306Z,7.50
2017-08-13T06:21:14.985Z,7.20
2017-08-13T06:23:42.859Z,8.17
2017-08-13T06:26:10.461Z,8.03
2017-08-13T06:28:38.447Z,7.70
2017-08-13T06:31:06.463Z,6.70
2017-08-13T06:33:34.186Z,7.00
2017-08-13T06:36:02.201Z,6.70
2017-08-13T06:38:30.036Z,6.67
2017-08-13T06:40:57.612Z,6.70
2017-08-13T06:43:25.575Z,6.57
2017-08-13T06:45:53.462Z,6.30
2017-08-13T06:48:21.040Z,6.43
2017-08-13T06:50:48.784Z,5.93
2017-08-13T06:53:16.498Z,6.23
2017-08-13T06:55:44.301Z,5.70
2017-08-13T06:58:12.031Z,6.40
2017-08-13T07:00:39.832Z,5.60
2017-08-13T07:03:07.568Z,6.03
2017-08-13T07:05:35.527Z,6.00
2017-08-13T07:08:03.443Z,6.17
2017-08-13T07:10:31.105Z,7.37
2017-08-13T07:12:58.768Z,6.47
2017-08-13T07:15:26.601Z,6.23
2017-08-13T07:17:54.297Z,6.67
2017-08-13T07:20:22.130Z,7.70
2017-08-13T07:22:49.797Z,7.60
2017-08-13T07:25:17.489Z,8.03
2017-08-13T07:27:45.150Z,7.13
2017-08-13T07:30:13.205Z,6.77
2017-08-13T07:32:41.067Z,7.03
2017-08-13T07:35:08.748Z,7.90
2017-08-13T07:37:36.407Z,8.10
2017-08-13T07:40:04.250Z,9.73
2017-08-13T07:42:31.993Z,8.17
2017-08-13T07:45:00.009Z,8.60
2017-08-13T07:47:27.611Z,7.33
2017-08-13T07:49:55.542Z,7.50
2017-08-13T07:52:23.379Z,8.10
2017-08-13T07:54:51.067Z,10.27
2017-08-13T07:57:18.724Z,6.33
2017-08-13T07:59:46.372Z,6.97
2017-08-13T08:02:13.953Z,6.37
2017-08-13T08:04:41.772Z,6.30
2017-08-13T08:07:09.790Z,6.37
2017-08-13T08:09:37.625Z,7.20
2017-08-13T08:12:05.699Z,7.70
2017-08-13T08:14:33.593Z,5.97
2017-08-13T08:17:01.254Z,6.73
2017-08-13T08:19:28.913Z,6.23
2017-08-13T08:21:56.580Z,7.30
2017-08-13T08:24:24.241Z,7.23
2017-08-13T08:26:52.274Z,6.37
2017-08-13T08:29:20.186Z,7.27
2017-08-13T08:31:47.889Z,5.97
2017-08-13T08:34:15.753Z,7.70
2017-08-13T08:36:43.778Z,6.93
2017-08-13T08:39:11.366Z,6.03
2017-08-13T08:41:39.079Z,5.80
2017-08-13T08:44:06.763Z,6.37
2017-08-13T08:46:34.609Z,7.60
2017-08-13T08:49:02.241Z,6.60
2017-08-13T08:51:30.158Z,6.83
2017-08-13T08:53:57.812Z,5.93
2017-08-13T08:56:25.489Z,6.67
2017-08-13T08:58:53.140Z,6.60
2017-08-13T09:01:20.994Z,6.23
2017-08-13T09:03:48.660Z,6.93
2017-08-13T09:06:16.500Z,6.40
2017-08-13T09:08:44.321Z,5.57
2017-08-13T09:11:11.969Z,7.47
2017-08-13T09:13:39.548Z,8.23
2017-08-13T09:16:07.370Z,6.10
2017-08-13T09:18:34.989Z,7.00
2017-08-13T09:21:02.567Z,5.00
2017-08-13T09:23:30.369Z,5.07
2017-08-13T09:25:58.028Z,5.93
2017-08-13T09:28:25.697Z,5.77
2017-08-13T09:30:53.276Z,5.37
2017-08-13T09:33:21.416Z,6.07
2017-08-13T09:35:49.100Z,4.80
2017-08-13T09:38:16.948Z,5.07
2017-08-13T09:40:44.616Z,6.47
2017-08-13T09:43:12.225Z,5.57
2017-08-13T09:45:39.958Z,4.57
2017-08-13T09:48:07.672Z,5.63
2017-08-13T09:50:35.486Z,6.50
2017-08-13T09:53:03.138Z,4.37
2017-08-13T09:55:30.876Z,5.00
2017-08-13T09:57:58.867Z,5.40
2017-08-13T10:00:26.526Z,5.50
2017-08-13T10:02:54.203Z,5.80
2017-08-13T10:05:21.811Z,5.53
2017-08-13T10:07:49.505Z,5.53
2017-08-13T10:10:17.126Z,6.03
2017-08-13T10:12:45.023Z,6.00
2017-08-13T10:15:12.647Z,6.70
2017-08-13T10:17:40.380Z,6.60
2017-08-13T10:20:07.957Z,5.00
2017-08-13T10:22:35.910Z,6.17
2017-08-13T10:25:03.753Z,5.47
2017-08-13T10:27:31.632Z,6.10
2017-08-13T10:29:59.309Z,5.50
2017-08-13T10:32:27.032Z,7.07
2017-08-13T10:34:54.901Z,6.20
2017-08-13T10:37:22.565Z,5.37
2017-08-13T10:39:50.364Z,6.20
2017-08-13T10:42:18.098Z,5.40
2017-08-13T10:44:45.708Z,7.47
2017-08-13T10:47:13.397Z,6.90
2017-08-13T10:49:41.003Z,7.30
2017-08-13T10:52:08.591Z,7.27
2017-08-13T10:54:36.439Z,7.43
2017-08-13T10:57:04.216Z,6.17
2017-08-13T10:59:31.861Z,6.63
2017-08-13T11:01:59.525Z,8.53
2017-08-13T11:04:27.120Z,5.47
2017-08-13T11:06:54.840Z,6.57
2017-08-13T11:09:22.511Z,5.10
2017-08-13T11:11:50.359Z,6.40
2017-08-13T11:14:18.105Z,5.77
2017-08-13T11:16:46.024Z,5.43
2017-08-13T11:19:13.838Z,5.90
2017-08-13T11:21:41.842Z,5.87
2017-08-13T11:24:09.513Z,5.40
2017-08-13T11:26:37.162Z,6.10
2017-08-13T11:29:04.751Z,5.87
2017-08-13T11:31:32.601Z,6.67
2017-08-13T11:34:00.540Z,7.50
2017-08-13T11:36:28.531Z,6.30
2017-08-13T11:38:56.505Z,6.13
2017-08-13T11:41:24.175Z,6.03
2017-08-13T11:43:52.008Z,7.33
2017-08-13T11:46:19.682Z,6.17
2017-08-13T11:48:47.696Z,6.60
2017-08-13T11:51:15.539Z,7.20
2017-08-13T11:53:43.360Z,5.77
2017-08-13T11:56:10.954Z,7.73
2017-08-13T11:58:38.665Z,6.90
2017-08-13T12:01:06.693Z,8.57
2017-08-13T12:03:34.520Z,6.30
2017-08-13T12:06:02.221Z,6.00
2017-08-13T12:08:29.886Z,5.70
2017-08-13T12:10:57.798Z,5.77
2017-08-13T12:13:25.399Z,5.80
2017-08-13T12:15:53.020Z,6.57
2017-08-13T12:18:20.848Z,6.17
2017-08-13T12:20:48.596Z,7.07
2017-08-13T12:23:16.431Z,6.80
2017-08-13T12:25:44.131Z,6.90
2017-08-13T12:28:11.788Z,6.10
2017-08-13T12:30:39.511Z,34.13
2017-08-13T12:33:07.474Z,7.07
2017-08-13T12:35:35.376Z,5.70
2017-08-13T12:38:03.314Z,6.83
2017-08-13T12:40:31.121Z,6.37
2017-08-13T12:42:58.708Z,6.10
2017-08-13T12:45:26.448Z,5.70
2017-08-13T12:47:54.306Z,7.00
2017-08-13T12:50:21.964Z,5.60
2017-08-13T12:52:49.849Z,5.80
2017-08-13T12:55:17.503Z,6.60
2017-08-13T12:57:45.227Z,6.00
2017-08-13T13:00:13.048Z,6.20
2017-08-13T13:02:40.643Z,6.23
2017-08-13T13:05:08.473Z,6.20
2017-08-13T13:07:36.434Z,5.90
2017-08-13T13:10:04.028Z,6.80
2017-08-13T13:12:31.957Z,4.93
2017-08-13T13:14:59.673Z,6.47
2017-08-13T13:17:27.696Z,5.30
2017-08-13T13:19:55.526Z,6.87
2017-08-13T13:22:23.641Z,5.63
2017-08-13T13:24:51.241Z,5.87
2017-08-13T13:27:18.961Z,7.23
2017-08-13T13:29:46.824Z,6.70
2017-08-13T13:32:14.482Z,7.57
2017-08-13T13:34:42.151Z,6.70
2017-08-13T13:37:09.998Z,6.73
2017-08-13T13:39:37.877Z,7.70
2017-08-13T13:42:07.975Z,7.23
2017-08-13T13:44:35.730Z,7.70
2017-08-13T13:47:03.719Z,7.80
2017-08-13T13:49:31.600Z,9.10
2017-08-13T13:51:59.448Z,8.00
2017-08-13T13:54:27.119Z,7.77
2017-08-13T13:56:54.998Z,7.80
2017-08-13T13:59:22.732Z,7.70
2017-08-13T14:01:50.448Z,6.97
2017-08-13T14:04:18.397Z,7.53
2017-08-13T14:06:46.425Z,7.20
2017-08-13T14:09:14.126Z,7.87
2017-08-13T14:11:41.702Z,8.60
2017-08-13T14:14:09.660Z,7.53
2017-08-13T14:16:37.372Z,8.07
2017-08-13T14:19:05.339Z,7.50
2017-08-13T14:21:33.159Z,7.90
2017-08-13T14:24:01.123Z,8.53
2017-08-13T14:26:28.967Z,7.60
2017-08-13T14:28:56.856Z,9.17
2017-08-13T14:31:24.702Z,8.67
2017-08-13T14:33:52.442Z,8.17
2017-08-13T14:36:20.251Z,7.00
2017-08-13T14:38:47.898Z,8.03
2017-08-13T14:41:15.777Z,7.80
2017-08-13T14:43:43.417Z,7.73
2017-08-13T14:46:11.011Z,8.77
2017-08-13T14:48:38.583Z,6.07
2017-08-13T14:51:06.212Z,6.47
2017-08-13T14:53:33.808Z,7.37
2017-08-13T14:56:01.420Z,6.33
2017-08-13T14:58:29.053Z,5.40
2017-08-13T15:00:56.659Z,8.70
2017-08-13T15:03:24.260Z,6.67
2017-08-13T15:05:51.890Z,5.63
2017-08-13T15:08:19.481Z,5.03
2017-08-13T15:10:47.094Z,5.37
2017-08-13T15:13:14.816Z,4.77
2017-08-13T15:15:42.736Z,4.40
2017-08-13T15:18:10.672Z,5.00
2017-08-13T15:20:38.580Z,6.17
2017-08-13T15:23:06.287Z,6.07
2017-08-13T15:25:34.102Z,5.70
2017-08-13T15:28:02.140Z,6.40
2017-08-13T15:30:29.846Z,5.00
2017-08-13T15:32:57.704Z,5.33
2017-08-13T15:35:25.419Z,5.73
2017-08-13T15:37:53.028Z,6.30
2017-08-13T15:40:20.695Z,5.23
2017-08-13T15:42:48.558Z,5.07
2017-08-13T15:45:16.219Z,5.00
2017-08-13T15:47:43.805Z,5.33
2017-08-13T15:50:11.419Z,5.93
2017-08-13T15:52:39.271Z,6.53
2017-08-13T15:55:07.131Z,5.43
2017-08-13T15:57:34.943Z,5.13
2017-08-13T16:00:02.613Z,6.17
2017-08-13T16:02:30.263Z,5.50
2017-08-13T16:04:57.981Z,6.60
2017-08-13T16:07:25.608Z,5.37
2017-08-13T16:09:53.185Z,6.13
2017-08-13T16:12:20.878Z,5.93
2017-08-13T16:14:48.576Z,6.60
2017-08-13T16:17:16.290Z,7.10
2017-08-13T16:19:44.310Z,6.40
2017-08-13T16:22:12.143Z,6.83
2017-08-13T16:24:39.891Z,6.47
2017-08-13T16:27:07.917Z,5.93
2017-08-13T16:29:35.746Z,6.30
2017-08-13T16:32:03.649Z,6.20
2017-08-13T16:34:31.308Z,5.83
2017-08-13T16:36:58.969Z,5.47
2017-08-13T16:39:26.632Z,6.37
2017-08-13T16:41:54.497Z,6.60
2017-08-13T16:44:22.151Z,5.47
2017-08-13T16:46:49.990Z,6.10
2017-08-13T16:49:17.695Z,6.00
2017-08-13T16:51:45.351Z,6.33
2017-08-13T16:54:13.010Z,5.17
2017-08-13T16:56:40.676Z,5.13
2017-08-13T16:59:08.270Z,5.47
2017-08-13T17:01:36.000Z,5.73
2017-08-13T17:04:04.103Z,4.77
2017-08-13T17:06:31.732Z,5.00
2017-08-13T17:08:59.401Z,5.10
2017-08-13T17:11:27.060Z,5.37
2017-08-13T17:13:54.785Z,5.77
2017-08-13T17:16:22.791Z,5.60
2017-08-13T17:18:50.817Z,4.73
2017-08-13T17:21:18.524Z,5.33
2017-08-13T17:23:46.376Z,6.03
2017-08-13T17:26:14.042Z,7.50
2017-08-13T17:28:41.763Z,7.80
2017-08-13T17:31:09.787Z,5.00
2017-08-13T17:33:37.631Z,5.17
2017-08-13T17:36:05.363Z,6.37
2017-08-13T17:38:32.973Z,5.53
2017-08-13T17:41:00.842Z,6.40
2017-08-13T17:43:28.506Z,6.50
2017-08-13T17:45:56.578Z,7.27
2017-08-13T17:48:24.260Z,6.00
2017-08-13T17:50:52.109Z,5.50
2017-08-13T17:53:19.954Z,6.00
2017-08-13T17:55:47.840Z,6.37
2017-08-13T17:58:15.501Z,6.53
2017-08-13T18:00:43.169Z,7.57
2017-08-13T18:03:11.026Z,6.50
2017-08-13T18:05:38.695Z,7.40
2017-08-13T18:08:06.341Z,7.63
2017-08-13T18:10:34.046Z,6.80
2017-08-13T18:13:01.646Z,6.97
2017-08-13T18:15:29.334Z,7.47
2017-08-13T18:17:57.152Z,7.20
2017-08-13T18:20:25.045Z,8.53
2017-08-13T18:22:52.954Z,9.53
2017-08-13T18:25:21.022Z,7.97
2017-08-13T18:27:49.071Z,8.40
2017-08-13T18:30:16.912Z,9.60
2017-08-13T18:32:44.928Z,10.37
2017-08-13T18:35:12.659Z,11.80
2017-08-13T18:37:40.543Z,10.90
2017-08-13T18:40:08.625Z,10.50
2017-08-13T18:42:36.696Z,10.10
2017-08-13T18:45:04.429Z,9.77
2017-08-13T18:47:32.508Z,10.37
2017-08-13T18:50:00.366Z,9.90
2017-08-13T18:52:28.255Z,10.17
2017-08-13T18:54:56.157Z,10.77
2017-08-13T18:57:24.092Z,12.60
2017-08-13T18:59:51.937Z,11.10
2017-08-13T19:02:19.626Z,11.40
2017-08-13T19:04:47.495Z,11.70
2017-08-13T19:07:15.161Z,10.43
2017-08-13T19:09:43.246Z,11.93
2017-08-13T19:12:11.193Z,12.80
2017-08-13T19:14:39.225Z,10.93
2017-08-13T19:17:07.593Z,11.43
2017-08-13T19:19:35.315Z,11.57
2017-08-13T19:22:03.741Z,11.47
2017-08-13T19:24:32.051Z,11.40
2017-08-13T19:27:00.640Z,12.97
2017-08-13T19:29:28.511Z,12.20
2017-08-13T19:31:56.580Z,11.70
2017-08-13T19:34:24.601Z,10.67
2017-08-13T19:36:52.502Z,11.20
2017-08-13T19:39:20.387Z,11.27
2017-08-13T19:41:48.371Z,11.30
2017-08-13T19:44:16.454Z,11.60
2017-08-13T19:46:44.493Z,13.67
2017-08-13T19:49:12.590Z,11.87
2017-08-13T19:51:40.670Z,12.57
2017-08-13T19:54:08.506Z,13.40
2017-08-13T19:56:36.218Z,13.50
2017-08-13T19:59:03.908Z,13.43
2017-08-13T20:01:31.899Z,14.87
2017-08-13T20:03:59.800Z,12.57
2017-08-13T20:06:27.509Z,11.20
2017-08-13T20:08:55.523Z,14.80
2017-08-13T20:11:23.598Z,13.30
2017-08-13T20:13:51.432Z,13.93
2017-08-13T20:16:19.329Z,14.10
2017-08-13T20:18:47.487Z,10.87
2017-08-13T20:21:15.434Z,12.10
2017-08-13T20:23:43.535Z,11.87
2017-08-13T20:26:11.232Z,13.27
2017-08-13T20:28:38.857Z,11.50
2017-08-13T20:31:06.695Z,10.40
2017-08-13T20:33:34.744Z,11.77
2017-08-13T20:36:02.666Z,10.40
2017-08-13T20:38:30.739Z,10.73
2017-08-13T20:40:58.379Z,10.70
2017-08-13T20:43:26.231Z,11.40
2017-08-13T20:45:53.927Z,10.30
2017-08-13T20:48:21.586Z,9.53
2017-08-13T20:50:49.521Z,9.37
2017-08-13T20:53:17.317Z,7.90
2017-08-13T20:55:45.141Z,9.17
2017-08-13T20:58:12.881Z,9.17
2017-08-13T21:00:40.711Z,8.83
2017-08-13T21:03:08.573Z,10.60
2017-08-13T21:05:36.247Z,9.87
2017-08-13T21:08:03.960Z,9.40
2017-08-13T21:10:31.926Z,9.73
2017-08-13T21:12:59.768Z,8.00
2017-08-13T21:15:27.509Z,7.13
2017-08-13T21:17:55.349Z,6.90
2017-08-13T21:20:23.219Z,8.30
2017-08-13T21:22:50.904Z,7.57
2017-08-13T21:25:18.563Z,7.77
2017-08-13T21:27:46.230Z,7.60
2017-08-13T21:30:14.057Z,7.00
2017-08-13T21:32:41.651Z,6.50
2017-08-13T21:35:09.419Z,6.47
2017-08-13T21:37:37.390Z,7.30
2017-08-13T21:40:05.359Z,5.00
2017-08-13T21:42:33.022Z,6.13
2017-08-13T21:45:01.689Z,6.90
2017-08-13T21:47:29.365Z,9.20
2017-08-13T21:49:57.100Z,6.90
2017-08-13T21:52:24.895Z,6.57
2017-08-13T21:54:52.560Z,6.00
2017-08-13T21:57:20.401Z,5.57
2017-08-13T21:59:48.054Z,5.90
2017-08-13T22:02:15.754Z,6.63
2017-08-13T22:04:43.619Z,6.07
2017-08-13T22:07:11.486Z,5.73
2017-08-13T22:09:39.333Z,6.13
2017-08-13T22:12:07.078Z,6.10
2017-08-13T22:14:35.042Z,6.90
2017-08-13T22:17:02.749Z,6.20
2017-08-13T22:19:30.570Z,7.77
2017-08-13T22:21:58.413Z,7.10
2017-08-13T22:24:26.144Z,7.00
2017-08-13T22:26:54.177Z,7.03
2017-08-13T22:29:21.875Z,7.30
2017-08-13T22:31:49.540Z,7.87
2017-08-13T22:34:17.198Z,6.93
2017-08-13T22:36:44.919Z,7.33
2017-08-13T22:39:12.687Z,8.10
2017-08-13T22:41:40.598Z,6.63
2017-08-13T22:44:08.254Z,7.20
2017-08-13T22:46:35.920Z,7.20
2017-08-13T22:49:03.629Z,9.23
2017-08-13T22:51:31.432Z,7.17
2017-08-13T22:53:59.419Z,7.47
2017-08-13T22:56:27.005Z,7.33
2017-08-13T22:58:54.850Z,7.83
2017-08-13T23:01:22.503Z,8.07
2017-08-13T23:03:50.164Z,8.07
2017-08-13T23:06:17.826Z,8.53
2017-08-13T23:08:45.546Z,8.00
2017-08-13T23:11:13.560Z,8.30
2017-08-13T23:13:41.229Z,8.90
2017-08-13T23:16:09.269Z,9.27
2017-08-13T23:18:37.012Z,9.20
2017-08-13T23:21:05.028Z,9.60
2017-08-13T23:23:32.607Z,8.80
2017-08-13T23:26:00.195Z,10.77
2017-08-13T23:28:27.979Z,10.90
2017-08-13T23:30:55.886Z,10.23
2017-08-13T23:33:23.530Z,10.20
2017-08-13T23:35:51.615Z,11.23
2017-08-13T23:38:19.210Z,10.70
2017-08-13T23:40:47.064Z,12.10
2017-08-13T23:43:15.016Z,11.87
2017-08-13T23:45:42.623Z,12.87
2017-08-13T23:48:10.463Z,12.67
2017-08-13T23:50:38.310Z,12.50
2017-08-13T23:53:06.274Z,11.77
2017-08-13T23:55:34.312Z,12.60
2017-08-13T23:58:02.013Z,12.70
